sensor_id;sensor_type;location;lat;lon;timestamp;P1;durP1;ratioP1;P2;durP2;ratioP2
22531;SDS011;11432;46.924;7.114;2023-01-01T00:00:40;16.42;;;10.38;;
22531;SDS011;11432;46.924;7.114;2023-01-01T00:03:06;6.47;;;3.83;;
22531;SDS011;11432;46.924;7.114;2023-01-01T00:05:31;6.60;;;3.90;;
22531;SDS011;11432;46.924;7.114;2023-01-01T00:07:57;6.10;;;3.72;;
22531;SDS011;11432;46.924;7.114;2023-01-01T00:10:22;4.78;;;3.35;;
22531;SDS011;11432;46.924;7.114;2023-01-01T00:12:57;5.20;;;3.35;;
22531;SDS011;11432;46.924;7.114;2023-01-01T00:15:24;5.90;;;3.42;;
22531;SDS011;11432;46.924;7.114;2023-01-01T00:17:50;5.45;;;3.35;;
22531;SDS011;11432;46.924;7.114;2023-01-01T00:20:16;6.97;;;3.63;;
22531;SDS011;11432;46.924;7.114;2023-01-01T00:22:42;5.53;;;2.90;;
22531;SDS011;11432;46.924;7.114;2023-01-01T00:25:09;7.55;;;3.03;;
22531;SDS011;11432;46.924;7.114;2023-01-01T00:27:38;4.57;;;3.17;;
22531;SDS011;11432;46.924;7.114;2023-01-01T00:30:04;4.88;;;3.08;;
22531;SDS011;11432;46.924;7.114;2023-01-01T00:32:30;5.82;;;3.20;;
22531;SDS011;11432;46.924;7.114;2023-01-01T00:34:55;6.63;;;3.63;;
22531;SDS011;11432;46.924;7.114;2023-01-01T00:37:21;7.88;;;3.65;;
22531;SDS011;11432;46.924;7.114;2023-01-01T00:39:47;6.82;;;3.65;;
22531;SDS011;11432;46.924;7.114;2023-01-01T00:42:12;6.43;;;3.08;;
22531;SDS011;11432;46.924;7.114;2023-01-01T00:44:38;5.65;;;3.03;;
22531;SDS011;11432;46.924;7.114;2023-01-01T00:47:03;6.13;;;3.65;;
22531;SDS011;11432;46.924;7.114;2023-01-01T00:49:29;5.35;;;3.03;;
22531;SDS011;11432;46.924;7.114;2023-01-01T00:51:55;5.05;;;3.00;;
22531;SDS011;11432;46.924;7.114;2023-01-01T00:54:20;4.70;;;2.60;;
22531;SDS011;11432;46.924;7.114;2023-01-01T00:56:46;5.88;;;2.83;;
22531;SDS011;11432;46.924;7.114;2023-01-01T00:59:11;5.88;;;3.13;;
22531;SDS011;11432;46.924;7.114;2023-01-01T01:01:37;7.47;;;2.97;;
22531;SDS011;11432;46.924;7.114;2023-01-01T01:04:04;12.18;;;3.30;;
22531;SDS011;11432;46.924;7.114;2023-01-01T01:06:31;5.07;;;2.53;;
22531;SDS011;11432;46.924;7.114;2023-01-01T01:08:56;4.85;;;2.45;;
22531;SDS011;11432;46.924;7.114;2023-01-01T01:11:22;6.55;;;2.40;;
22531;SDS011;11432;46.924;7.114;2023-01-01T01:13:50;4.07;;;2.50;;
22531;SDS011;11432;46.924;7.114;2023-01-01T01:16:20;5.88;;;1.98;;
22531;SDS011;11432;46.924;7.114;2023-01-01T01:18:55;2.63;;;1.95;;
22531;SDS011;11432;46.924;7.114;2023-01-01T01:21:23;4.95;;;2.05;;
22531;SDS011;11432;46.924;7.114;2023-01-01T01:23:50;3.63;;;2.00;;
22531;SDS011;11432;46.924;7.114;2023-01-01T01:26:19;3.35;;;2.25;;
22531;SDS011;11432;46.924;7.114;2023-01-01T01:28:46;4.05;;;2.10;;
22531;SDS011;11432;46.924;7.114;2023-01-01T01:31:13;4.95;;;2.08;;
22531;SDS011;11432;46.924;7.114;2023-01-01T01:33:39;3.25;;;2.08;;
22531;SDS011;11432;46.924;7.114;2023-01-01T01:36:06;3.65;;;2.30;;
22531;SDS011;11432;46.924;7.114;2023-01-01T01:38:33;4.20;;;2.40;;
22531;SDS011;11432;46.924;7.114;2023-01-01T01:40:59;5.28;;;2.53;;
22531;SDS011;11432;46.924;7.114;2023-01-01T01:45:57;4.00;;;2.50;;
22531;SDS011;11432;46.924;7.114;2023-01-01T01:48:36;4.70;;;2.33;;
22531;SDS011;11432;46.924;7.114;2023-01-01T01:51:04;6.28;;;3.45;;
22531;SDS011;11432;46.924;7.114;2023-01-01T01:53:32;6.10;;;2.40;;
22531;SDS011;11432;46.924;7.114;2023-01-01T01:58:32;4.85;;;2.45;;
22531;SDS011;11432;46.924;7.114;2023-01-01T02:00:59;4.68;;;2.03;;
22531;SDS011;11432;46.924;7.114;2023-01-01T02:06:09;4.55;;;2.45;;
22531;SDS011;11432;46.924;7.114;2023-01-01T02:08:35;5.65;;;2.70;;
22531;SDS011;11432;46.924;7.114;2023-01-01T02:11:01;4.43;;;2.08;;
22531;SDS011;11432;46.924;7.114;2023-01-01T02:13:27;4.40;;;2.20;;
22531;SDS011;11432;46.924;7.114;2023-01-01T02:15:59;6.88;;;2.20;;
22531;SDS011;11432;46.924;7.114;2023-01-01T02:18:58;3.58;;;2.00;;
22531;SDS011;11432;46.924;7.114;2023-01-01T02:29:57;3.92;;;2.17;;
22531;SDS011;11432;46.924;7.114;2023-01-01T02:32:28;5.40;;;2.33;;
22531;SDS011;11432;46.924;7.114;2023-01-01T02:35:01;3.20;;;1.83;;
22531;SDS011;11432;46.924;7.114;2023-01-01T02:37:49;4.63;;;2.30;;
22531;SDS011;11432;46.924;7.114;2023-01-01T02:40:20;3.55;;;2.10;;
22531;SDS011;11432;46.924;7.114;2023-01-01T02:42:49;3.47;;;2.13;;
22531;SDS011;11432;46.924;7.114;2023-01-01T02:45:16;3.88;;;2.00;;
22531;SDS011;11432;46.924;7.114;2023-01-01T02:47:42;4.85;;;2.40;;
22531;SDS011;11432;46.924;7.114;2023-01-01T02:50:29;4.75;;;2.75;;
22531;SDS011;11432;46.924;7.114;2023-01-01T02:58:56;5.35;;;2.20;;
22531;SDS011;11432;46.924;7.114;2023-01-01T03:01:57;4.15;;;2.20;;
22531;SDS011;11432;46.924;7.114;2023-01-01T03:07:34;5.20;;;2.53;;
22531;SDS011;11432;46.924;7.114;2023-01-01T03:10:14;4.70;;;2.80;;
22531;SDS011;11432;46.924;7.114;2023-01-01T03:20:56;5.85;;;2.20;;
22531;SDS011;11432;46.924;7.114;2023-01-01T03:23:25;4.32;;;2.60;;
22531;SDS011;11432;46.924;7.114;2023-01-01T03:25:58;5.00;;;2.03;;
22531;SDS011;11432;46.924;7.114;2023-01-01T03:28:37;4.05;;;2.30;;
22531;SDS011;11432;46.924;7.114;2023-01-01T03:31:08;7.22;;;2.25;;
22531;SDS011;11432;46.924;7.114;2023-01-01T03:33:38;4.25;;;2.30;;
22531;SDS011;11432;46.924;7.114;2023-01-01T03:36:14;4.25;;;2.10;;
22531;SDS011;11432;46.924;7.114;2023-01-01T03:38:42;5.63;;;2.20;;
22531;SDS011;11432;46.924;7.114;2023-01-01T03:41:57;4.68;;;2.35;;
22531;SDS011;11432;46.924;7.114;2023-01-01T03:46:59;5.85;;;2.90;;
22531;SDS011;11432;46.924;7.114;2023-01-01T03:49:25;5.75;;;2.60;;
22531;SDS011;11432;46.924;7.114;2023-01-01T03:52:09;3.90;;;2.47;;
22531;SDS011;11432;46.924;7.114;2023-01-01T03:54:44;4.25;;;2.60;;
22531;SDS011;11432;46.924;7.114;2023-01-01T03:57:21;4.60;;;2.65;;
22531;SDS011;11432;46.924;7.114;2023-01-01T04:00:04;3.75;;;2.50;;
22531;SDS011;11432;46.924;7.114;2023-01-01T04:02:34;4.85;;;2.58;;
22531;SDS011;11432;46.924;7.114;2023-01-01T04:05:13;3.88;;;2.50;;
22531;SDS011;11432;46.924;7.114;2023-01-01T04:07:41;3.53;;;2.20;;
22531;SDS011;11432;46.924;7.114;2023-01-01T04:10:07;5.68;;;2.28;;
22531;SDS011;11432;46.924;7.114;2023-01-01T04:12:48;4.38;;;2.20;;
22531;SDS011;11432;46.924;7.114;2023-01-01T04:15:16;6.18;;;2.15;;
22531;SDS011;11432;46.924;7.114;2023-01-01T04:17:43;4.50;;;2.22;;
22531;SDS011;11432;46.924;7.114;2023-01-01T04:20:09;4.80;;;2.22;;
22531;SDS011;11432;46.924;7.114;2023-01-01T04:22:36;4.38;;;2.38;;
22531;SDS011;11432;46.924;7.114;2023-01-01T04:25:02;6.07;;;2.63;;
22531;SDS011;11432;46.924;7.114;2023-01-01T04:27:28;7.00;;;2.20;;
22531;SDS011;11432;46.924;7.114;2023-01-01T04:29:54;5.60;;;2.63;;
22531;SDS011;11432;46.924;7.114;2023-01-01T04:32:19;5.53;;;2.88;;
22531;SDS011;11432;46.924;7.114;2023-01-01T04:34:46;4.95;;;2.67;;
22531;SDS011;11432;46.924;7.114;2023-01-01T04:37:11;4.47;;;2.47;;
22531;SDS011;11432;46.924;7.114;2023-01-01T04:39:37;6.10;;;2.35;;
22531;SDS011;11432;46.924;7.114;2023-01-01T04:42:03;5.68;;;2.60;;
22531;SDS011;11432;46.924;7.114;2023-01-01T04:44:28;3.22;;;1.80;;
22531;SDS011;11432;46.924;7.114;2023-01-01T04:46:54;7.40;;;2.20;;
22531;SDS011;11432;46.924;7.114;2023-01-01T04:49:20;5.10;;;2.13;;
22531;SDS011;11432;46.924;7.114;2023-01-01T04:51:45;5.57;;;2.45;;
22531;SDS011;11432;46.924;7.114;2023-01-01T04:54:11;4.07;;;2.50;;
22531;SDS011;11432;46.924;7.114;2023-01-01T04:56:36;4.05;;;2.20;;
22531;SDS011;11432;46.924;7.114;2023-01-01T04:59:02;5.45;;;2.30;;
22531;SDS011;11432;46.924;7.114;2023-01-01T05:01:28;3.53;;;2.40;;
22531;SDS011;11432;46.924;7.114;2023-01-01T05:03:54;5.05;;;2.70;;
22531;SDS011;11432;46.924;7.114;2023-01-01T05:06:21;5.63;;;2.30;;
22531;SDS011;11432;46.924;7.114;2023-01-01T05:08:49;5.15;;;3.08;;
22531;SDS011;11432;46.924;7.114;2023-01-01T05:11:17;5.38;;;3.70;;
22531;SDS011;11432;46.924;7.114;2023-01-01T05:13:45;5.83;;;4.07;;
22531;SDS011;11432;46.924;7.114;2023-01-01T05:16:15;6.85;;;4.55;;
22531;SDS011;11432;46.924;7.114;2023-01-01T05:21:12;8.90;;;5.45;;
22531;SDS011;11432;46.924;7.114;2023-01-01T05:23:41;13.63;;;6.57;;
22531;SDS011;11432;46.924;7.114;2023-01-01T05:26:07;15.20;;;5.80;;
22531;SDS011;11432;46.924;7.114;2023-01-01T05:28:37;8.00;;;4.60;;
22531;SDS011;11432;46.924;7.114;2023-01-01T05:31:06;8.35;;;4.40;;
22531;SDS011;11432;46.924;7.114;2023-01-01T05:33:35;6.25;;;4.10;;
22531;SDS011;11432;46.924;7.114;2023-01-01T05:36:01;8.80;;;3.83;;
22531;SDS011;11432;46.924;7.114;2023-01-01T05:38:28;7.30;;;4.20;;
22531;SDS011;11432;46.924;7.114;2023-01-01T05:40:53;5.90;;;3.90;;
22531;SDS011;11432;46.924;7.114;2023-01-01T05:43:19;7.10;;;4.43;;
22531;SDS011;11432;46.924;7.114;2023-01-01T05:45:45;7.70;;;4.63;;
22531;SDS011;11432;46.924;7.114;2023-01-01T05:48:10;7.82;;;4.40;;
22531;SDS011;11432;46.924;7.114;2023-01-01T05:50:36;7.13;;;4.78;;
22531;SDS011;11432;46.924;7.114;2023-01-01T05:53:01;6.63;;;4.50;;
22531;SDS011;11432;46.924;7.114;2023-01-01T05:55:27;5.97;;;3.95;;
22531;SDS011;11432;46.924;7.114;2023-01-01T05:57:53;7.43;;;4.10;;
22531;SDS011;11432;46.924;7.114;2023-01-01T06:00:19;8.63;;;4.07;;
22531;SDS011;11432;46.924;7.114;2023-01-01T06:02:45;6.75;;;4.10;;
22531;SDS011;11432;46.924;7.114;2023-01-01T06:05:10;6.60;;;4.07;;
22531;SDS011;11432;46.924;7.114;2023-01-01T06:07:36;8.07;;;4.32;;
22531;SDS011;11432;46.924;7.114;2023-01-01T06:10:02;9.15;;;4.10;;
22531;SDS011;11432;46.924;7.114;2023-01-01T06:12:28;5.28;;;3.50;;
22531;SDS011;11432;46.924;7.114;2023-01-01T06:14:53;6.43;;;3.50;;
22531;SDS011;11432;46.924;7.114;2023-01-01T06:17:19;8.52;;;3.65;;
22531;SDS011;11432;46.924;7.114;2023-01-01T06:19:44;6.55;;;3.35;;
22531;SDS011;11432;46.924;7.114;2023-01-01T06:22:10;5.13;;;3.45;;
22531;SDS011;11432;46.924;7.114;2023-01-01T06:24:35;5.45;;;3.45;;
22531;SDS011;11432;46.924;7.114;2023-01-01T06:27:01;4.43;;;3.28;;
22531;SDS011;11432;46.924;7.114;2023-01-01T06:29:27;4.85;;;2.83;;
22531;SDS011;11432;46.924;7.114;2023-01-01T06:31:52;9.10;;;3.03;;
22531;SDS011;11432;46.924;7.114;2023-01-01T06:34:18;5.75;;;3.03;;
22531;SDS011;11432;46.924;7.114;2023-01-01T06:36:43;4.40;;;2.72;;
22531;SDS011;11432;46.924;7.114;2023-01-01T06:39:09;4.80;;;2.50;;
22531;SDS011;11432;46.924;7.114;2023-01-01T06:41:35;4.43;;;2.55;;
22531;SDS011;11432;46.924;7.114;2023-01-01T06:44:00;6.72;;;3.00;;
22531;SDS011;11432;46.924;7.114;2023-01-01T06:46:30;5.40;;;3.20;;
22531;SDS011;11432;46.924;7.114;2023-01-01T06:49:01;5.35;;;2.30;;
22531;SDS011;11432;46.924;7.114;2023-01-01T06:51:37;4.65;;;2.47;;
22531;SDS011;11432;46.924;7.114;2023-01-01T06:54:05;4.93;;;2.88;;
22531;SDS011;11432;46.924;7.114;2023-01-01T06:56:31;4.32;;;2.70;;
22531;SDS011;11432;46.924;7.114;2023-01-01T06:58:57;4.90;;;2.85;;
22531;SDS011;11432;46.924;7.114;2023-01-01T07:01:24;3.72;;;2.72;;
22531;SDS011;11432;46.924;7.114;2023-01-01T07:03:52;4.63;;;2.60;;
22531;SDS011;11432;46.924;7.114;2023-01-01T07:06:23;4.90;;;2.90;;
22531;SDS011;11432;46.924;7.114;2023-01-01T07:08:49;5.93;;;2.70;;
22531;SDS011;11432;46.924;7.114;2023-01-01T07:11:15;9.55;;;3.58;;
22531;SDS011;11432;46.924;7.114;2023-01-01T07:13:41;5.40;;;2.65;;
22531;SDS011;11432;46.924;7.114;2023-01-01T07:16:07;4.15;;;2.45;;
22531;SDS011;11432;46.924;7.114;2023-01-01T07:18:33;3.92;;;2.33;;
22531;SDS011;11432;46.924;7.114;2023-01-01T07:21:00;5.80;;;3.17;;
22531;SDS011;11432;46.924;7.114;2023-01-01T07:23:28;3.95;;;2.22;;
22531;SDS011;11432;46.924;7.114;2023-01-01T07:25:55;4.93;;;2.28;;
22531;SDS011;11432;46.924;7.114;2023-01-01T07:28:22;6.90;;;2.83;;
22531;SDS011;11432;46.924;7.114;2023-01-01T07:30:48;4.30;;;2.47;;
22531;SDS011;11432;46.924;7.114;2023-01-01T07:33:18;5.35;;;2.60;;
22531;SDS011;11432;46.924;7.114;2023-01-01T07:35:45;5.43;;;3.03;;
22531;SDS011;11432;46.924;7.114;2023-01-01T07:38:11;7.72;;;3.30;;
22531;SDS011;11432;46.924;7.114;2023-01-01T07:40:38;7.05;;;3.65;;
22531;SDS011;11432;46.924;7.114;2023-01-01T07:43:04;6.30;;;3.20;;
22531;SDS011;11432;46.924;7.114;2023-01-01T07:45:30;6.63;;;3.35;;
22531;SDS011;11432;46.924;7.114;2023-01-01T07:47:56;5.05;;;3.38;;
22531;SDS011;11432;46.924;7.114;2023-01-01T07:50:26;5.45;;;3.03;;
22531;SDS011;11432;46.924;7.114;2023-01-01T07:52:54;7.80;;;3.45;;
22531;SDS011;11432;46.924;7.114;2023-01-01T07:55:20;4.65;;;2.85;;
22531;SDS011;11432;46.924;7.114;2023-01-01T07:57:46;5.65;;;2.78;;
22531;SDS011;11432;46.924;7.114;2023-01-01T08:00:13;7.85;;;3.13;;
22531;SDS011;11432;46.924;7.114;2023-01-01T08:02:41;5.57;;;3.00;;
22531;SDS011;11432;46.924;7.114;2023-01-01T08:05:07;7.03;;;2.50;;
22531;SDS011;11432;46.924;7.114;2023-01-01T08:07:33;5.90;;;3.10;;
22531;SDS011;11432;46.924;7.114;2023-01-01T08:09:58;5.68;;;3.20;;
22531;SDS011;11432;46.924;7.114;2023-01-01T08:12:24;5.75;;;3.05;;
22531;SDS011;11432;46.924;7.114;2023-01-01T08:14:50;8.27;;;3.85;;
22531;SDS011;11432;46.924;7.114;2023-01-01T08:17:16;8.57;;;4.30;;
22531;SDS011;11432;46.924;7.114;2023-01-01T08:19:41;6.10;;;3.92;;
22531;SDS011;11432;46.924;7.114;2023-01-01T08:22:09;4.85;;;3.30;;
22531;SDS011;11432;46.924;7.114;2023-01-01T08:24:35;5.47;;;3.22;;
22531;SDS011;11432;46.924;7.114;2023-01-01T08:27:00;8.52;;;3.33;;
22531;SDS011;11432;46.924;7.114;2023-01-01T08:29:26;5.03;;;2.75;;
22531;SDS011;11432;46.924;7.114;2023-01-01T08:31:52;6.35;;;3.40;;
22531;SDS011;11432;46.924;7.114;2023-01-01T08:34:17;6.25;;;2.95;;
22531;SDS011;11432;46.924;7.114;2023-01-01T08:36:43;4.10;;;2.40;;
22531;SDS011;11432;46.924;7.114;2023-01-01T08:39:08;5.55;;;2.17;;
22531;SDS011;11432;46.924;7.114;2023-01-01T08:41:34;5.97;;;2.60;;
22531;SDS011;11432;46.924;7.114;2023-01-01T08:44:00;5.07;;;2.50;;
22531;SDS011;11432;46.924;7.114;2023-01-01T08:46:25;5.32;;;2.60;;
22531;SDS011;11432;46.924;7.114;2023-01-01T08:48:51;4.50;;;2.42;;
22531;SDS011;11432;46.924;7.114;2023-01-01T08:51:17;5.55;;;2.75;;
22531;SDS011;11432;46.924;7.114;2023-01-01T08:53:42;3.65;;;2.25;;
22531;SDS011;11432;46.924;7.114;2023-01-01T08:56:08;4.00;;;2.53;;
22531;SDS011;11432;46.924;7.114;2023-01-01T08:58:36;5.05;;;2.33;;
22531;SDS011;11432;46.924;7.114;2023-01-01T09:01:03;5.00;;;2.50;;
22531;SDS011;11432;46.924;7.114;2023-01-01T09:03:30;6.90;;;2.33;;
22531;SDS011;11432;46.924;7.114;2023-01-01T09:05:56;4.00;;;2.10;;
22531;SDS011;11432;46.924;7.114;2023-01-01T09:08:22;6.55;;;1.90;;
22531;SDS011;11432;46.924;7.114;2023-01-01T09:10:48;5.18;;;1.90;;
22531;SDS011;11432;46.924;7.114;2023-01-01T09:13:15;4.22;;;1.90;;
22531;SDS011;11432;46.924;7.114;2023-01-01T09:15:43;6.05;;;1.85;;
22531;SDS011;11432;46.924;7.114;2023-01-01T09:18:09;3.50;;;1.80;;
22531;SDS011;11432;46.924;7.114;2023-01-01T09:20:35;5.30;;;1.73;;
22531;SDS011;11432;46.924;7.114;2023-01-01T09:23:02;3.90;;;2.20;;
22531;SDS011;11432;46.924;7.114;2023-01-01T09:25:28;4.05;;;1.90;;
22531;SDS011;11432;46.924;7.114;2023-01-01T09:28:00;5.35;;;2.10;;
22531;SDS011;11432;46.924;7.114;2023-01-01T09:30:28;4.45;;;2.10;;
22531;SDS011;11432;46.924;7.114;2023-01-01T09:32:54;3.90;;;1.95;;
22531;SDS011;11432;46.924;7.114;2023-01-01T09:35:20;3.03;;;1.80;;
22531;SDS011;11432;46.924;7.114;2023-01-01T09:37:45;4.43;;;2.03;;
22531;SDS011;11432;46.924;7.114;2023-01-01T09:40:20;2.75;;;1.85;;
22531;SDS011;11432;46.924;7.114;2023-01-01T09:43:20;5.90;;;2.45;;
22531;SDS011;11432;46.924;7.114;2023-01-01T09:45:57;4.20;;;2.13;;
22531;SDS011;11432;46.924;7.114;2023-01-01T09:48:25;4.60;;;2.35;;
22531;SDS011;11432;46.924;7.114;2023-01-01T09:50:53;9.73;;;2.57;;
22531;SDS011;11432;46.924;7.114;2023-01-01T09:56:12;2.63;;;1.92;;
22531;SDS011;11432;46.924;7.114;2023-01-01T09:58:41;7.45;;;1.92;;
22531;SDS011;11432;46.924;7.114;2023-01-01T10:06:37;5.27;;;2.37;;
22531;SDS011;11432;46.924;7.114;2023-01-01T10:09:25;6.28;;;2.55;;
22531;SDS011;11432;46.924;7.114;2023-01-01T10:15:13;6.68;;;2.85;;
22531;SDS011;11432;46.924;7.114;2023-01-01T10:17:46;5.55;;;2.17;;
22531;SDS011;11432;46.924;7.114;2023-01-01T10:20:19;8.93;;;2.75;;
22531;SDS011;11432;46.924;7.114;2023-01-01T10:22:48;4.55;;;2.47;;
22531;SDS011;11432;46.924;7.114;2023-01-01T10:25:18;5.05;;;2.60;;
22531;SDS011;11432;46.924;7.114;2023-01-01T10:28:05;4.70;;;2.42;;
22531;SDS011;11432;46.924;7.114;2023-01-01T10:30:38;5.15;;;2.63;;
22531;SDS011;11432;46.924;7.114;2023-01-01T10:33:07;5.00;;;2.10;;
22531;SDS011;11432;46.924;7.114;2023-01-01T10:35:59;4.53;;;2.42;;
22531;SDS011;11432;46.924;7.114;2023-01-01T10:38:25;4.85;;;2.47;;
22531;SDS011;11432;46.924;7.114;2023-01-01T10:40:52;8.43;;;2.38;;
22531;SDS011;11432;46.924;7.114;2023-01-01T10:43:23;4.82;;;2.50;;
22531;SDS011;11432;46.924;7.114;2023-01-01T10:45:52;4.90;;;3.10;;
22531;SDS011;11432;46.924;7.114;2023-01-01T10:48:26;6.25;;;2.72;;
22531;SDS011;11432;46.924;7.114;2023-01-01T10:50:58;8.60;;;3.60;;
22531;SDS011;11432;46.924;7.114;2023-01-01T10:53:29;7.22;;;2.88;;
22531;SDS011;11432;46.924;7.114;2023-01-01T11:01:31;4.47;;;2.70;;
22531;SDS011;11432;46.924;7.114;2023-01-01T11:09:05;4.60;;;2.40;;
22531;SDS011;11432;46.924;7.114;2023-01-01T11:11:44;4.35;;;2.80;;
22531;SDS011;11432;46.924;7.114;2023-01-01T11:14:18;5.07;;;3.10;;
22531;SDS011;11432;46.924;7.114;2023-01-01T11:16:45;6.78;;;3.50;;
22531;SDS011;11432;46.924;7.114;2023-01-01T11:19:16;6.85;;;3.88;;
22531;SDS011;11432;46.924;7.114;2023-01-01T11:21:48;5.85;;;3.50;;
22531;SDS011;11432;46.924;7.114;2023-01-01T11:24:18;5.47;;;3.70;;
22531;SDS011;11432;46.924;7.114;2023-01-01T11:26:46;6.20;;;3.70;;
22531;SDS011;11432;46.924;7.114;2023-01-01T11:31:45;6.93;;;3.63;;
22531;SDS011;11432;46.924;7.114;2023-01-01T11:34:31;9.18;;;3.55;;
22531;SDS011;11432;46.924;7.114;2023-01-01T11:37:08;7.88;;;3.65;;
22531;SDS011;11432;46.924;7.114;2023-01-01T11:39:41;6.65;;;3.72;;
22531;SDS011;11432;46.924;7.114;2023-01-01T11:42:15;5.75;;;3.40;;
22531;SDS011;11432;46.924;7.114;2023-01-01T11:44:55;6.28;;;3.60;;
22531;SDS011;11432;46.924;7.114;2023-01-01T11:47:31;6.60;;;3.13;;
22531;SDS011;11432;46.924;7.114;2023-01-01T11:52:47;5.68;;;2.70;;
22531;SDS011;11432;46.924;7.114;2023-01-01T11:55:19;5.13;;;3.15;;
22531;SDS011;11432;46.924;7.114;2023-01-01T12:00:46;5.22;;;2.60;;
22531;SDS011;11432;46.924;7.114;2023-01-01T12:08:31;6.57;;;2.50;;
22531;SDS011;11432;46.924;7.114;2023-01-01T12:11:15;7.60;;;2.80;;
22531;SDS011;11432;46.924;7.114;2023-01-01T12:13:49;5.90;;;3.00;;
22531;SDS011;11432;46.924;7.114;2023-01-01T12:16:47;5.00;;;2.42;;
22531;SDS011;11432;46.924;7.114;2023-01-01T12:22:17;7.43;;;2.45;;
22531;SDS011;11432;46.924;7.114;2023-01-01T12:24:43;7.40;;;2.50;;
22531;SDS011;11432;46.924;7.114;2023-01-01T12:30:26;4.95;;;1.80;;
22531;SDS011;11432;46.924;7.114;2023-01-01T12:35:50;4.80;;;2.42;;
22531;SDS011;11432;46.924;7.114;2023-01-01T12:44:16;4.25;;;2.22;;
22531;SDS011;11432;46.924;7.114;2023-01-01T12:49:38;6.78;;;1.73;;
22531;SDS011;11432;46.924;7.114;2023-01-01T13:00:58;5.38;;;1.67;;
22531;SDS011;11432;46.924;7.114;2023-01-01T13:03:32;3.45;;;1.80;;
22531;SDS011;11432;46.924;7.114;2023-01-01T13:06:04;4.53;;;1.42;;
22531;SDS011;11432;46.924;7.114;2023-01-01T13:08:32;3.65;;;1.25;;
22531;SDS011;11432;46.924;7.114;2023-01-01T13:10:59;3.60;;;1.33;;
22531;SDS011;11432;46.924;7.114;2023-01-01T13:13:26;2.20;;;1.25;;
22531;SDS011;11432;46.924;7.114;2023-01-01T13:15:55;6.18;;;1.70;;
22531;SDS011;11432;46.924;7.114;2023-01-01T13:18:25;3.78;;;1.20;;
22531;SDS011;11432;46.924;7.114;2023-01-01T13:26:47;2.70;;;1.17;;
22531;SDS011;11432;46.924;7.114;2023-01-01T13:37:26;2.90;;;1.17;;
22531;SDS011;11432;46.924;7.114;2023-01-01T13:39:59;4.75;;;1.38;;
22531;SDS011;11432;46.924;7.114;2023-01-01T13:45:31;5.00;;;1.10;;
22531;SDS011;11432;46.924;7.114;2023-01-01T13:56:56;2.28;;;1.08;;
22531;SDS011;11432;46.924;7.114;2023-01-01T14:07:40;2.03;;;1.00;;
22531;SDS011;11432;46.924;7.114;2023-01-01T14:12:59;2.58;;;1.30;;
22531;SDS011;11432;46.924;7.114;2023-01-01T14:15:39;4.40;;;1.38;;
22531;SDS011;11432;46.924;7.114;2023-01-01T14:18:21;4.55;;;1.50;;
22531;SDS011;11432;46.924;7.114;2023-01-01T14:21:07;4.50;;;1.70;;
22531;SDS011;11432;46.924;7.114;2023-01-01T14:23:41;3.30;;;1.33;;
22531;SDS011;11432;46.924;7.114;2023-01-01T14:26:09;2.78;;;1.50;;
22531;SDS011;11432;46.924;7.114;2023-01-01T14:28:38;2.78;;;1.40;;
22531;SDS011;11432;46.924;7.114;2023-01-01T14:31:06;4.10;;;1.67;;
22531;SDS011;11432;46.924;7.114;2023-01-01T14:33:36;6.70;;;1.50;;
22531;SDS011;11432;46.924;7.114;2023-01-01T14:36:04;3.08;;;1.73;;
22531;SDS011;11432;46.924;7.114;2023-01-01T14:38:41;5.13;;;1.40;;
22531;SDS011;11432;46.924;7.114;2023-01-01T14:43:53;3.22;;;1.60;;
22531;SDS011;11432;46.924;7.114;2023-01-01T14:46:23;1.98;;;1.23;;
22531;SDS011;11432;46.924;7.114;2023-01-01T14:48:55;4.78;;;1.60;;
22531;SDS011;11432;46.924;7.114;2023-01-01T14:51:25;3.38;;;1.52;;
22531;SDS011;11432;46.924;7.114;2023-01-01T14:53:53;5.10;;;1.50;;
22531;SDS011;11432;46.924;7.114;2023-01-01T14:56:27;2.90;;;1.50;;
22531;SDS011;11432;46.924;7.114;2023-01-01T14:59:03;2.92;;;1.60;;
22531;SDS011;11432;46.924;7.114;2023-01-01T15:01:37;3.88;;;1.40;;
22531;SDS011;11432;46.924;7.114;2023-01-01T15:04:22;3.58;;;1.40;;
22531;SDS011;11432;46.924;7.114;2023-01-01T15:06:58;2.50;;;1.50;;
22531;SDS011;11432;46.924;7.114;2023-01-01T15:09:25;2.30;;;1.30;;
22531;SDS011;11432;46.924;7.114;2023-01-01T15:11:56;3.97;;;1.70;;
22531;SDS011;11432;46.924;7.114;2023-01-01T15:14:34;2.65;;;1.60;;
22531;SDS011;11432;46.924;7.114;2023-01-01T15:17:10;5.22;;;1.83;;
22531;SDS011;11432;46.924;7.114;2023-01-01T15:19:38;4.45;;;1.40;;
22531;SDS011;11432;46.924;7.114;2023-01-01T15:22:47;2.60;;;1.83;;
22531;SDS011;11432;46.924;7.114;2023-01-01T15:24:55;3.13;;;1.80;;
22531;SDS011;11432;46.924;7.114;2023-01-01T15:27:29;3.67;;;2.15;;
22531;SDS011;11432;46.924;7.114;2023-01-01T15:29:57;3.92;;;1.70;;
22531;SDS011;11432;46.924;7.114;2023-01-01T15:32:31;3.25;;;1.90;;
22531;SDS011;11432;46.924;7.114;2023-01-01T15:34:59;4.18;;;3.08;;
22531;SDS011;11432;46.924;7.114;2023-01-01T15:40:47;4.43;;;2.15;;
22531;SDS011;11432;46.924;7.114;2023-01-01T15:45:26;5.10;;;2.40;;
22531;SDS011;11432;46.924;7.114;2023-01-01T15:50:32;4.10;;;2.10;;
22531;SDS011;11432;46.924;7.114;2023-01-01T15:53:06;5.22;;;2.53;;
22531;SDS011;11432;46.924;7.114;2023-01-01T15:58:31;3.88;;;2.17;;
22531;SDS011;11432;46.924;7.114;2023-01-01T16:00:59;5.35;;;2.55;;
22531;SDS011;11432;46.924;7.114;2023-01-01T16:03:28;5.03;;;2.72;;
22531;SDS011;11432;46.924;7.114;2023-01-01T16:05:57;6.80;;;3.08;;
22531;SDS011;11432;46.924;7.114;2023-01-01T16:08:23;6.30;;;2.88;;
22531;SDS011;11432;46.924;7.114;2023-01-01T16:10:49;6.38;;;2.72;;
22531;SDS011;11432;46.924;7.114;2023-01-01T16:13:15;6.55;;;3.08;;
22531;SDS011;11432;46.924;7.114;2023-01-01T16:18:50;4.50;;;2.33;;
22531;SDS011;11432;46.924;7.114;2023-01-01T16:21:16;5.20;;;2.58;;
22531;SDS011;11432;46.924;7.114;2023-01-01T16:23:42;4.72;;;2.67;;
22531;SDS011;11432;46.924;7.114;2023-01-01T16:26:07;5.35;;;2.80;;
22531;SDS011;11432;46.924;7.114;2023-01-01T16:28:33;6.25;;;2.72;;
22531;SDS011;11432;46.924;7.114;2023-01-01T16:30:58;4.90;;;2.88;;
22531;SDS011;11432;46.924;7.114;2023-01-01T16:33:24;4.90;;;2.78;;
22531;SDS011;11432;46.924;7.114;2023-01-01T16:35:50;3.92;;;2.22;;
22531;SDS011;11432;46.924;7.114;2023-01-01T16:38:15;4.70;;;3.10;;
22531;SDS011;11432;46.924;7.114;2023-01-01T16:40:41;6.78;;;3.30;;
22531;SDS011;11432;46.924;7.114;2023-01-01T16:43:16;9.45;;;4.90;;
22531;SDS011;11432;46.924;7.114;2023-01-01T16:45:43;9.73;;;4.47;;
22531;SDS011;11432;46.924;7.114;2023-01-01T16:48:10;12.80;;;5.30;;
22531;SDS011;11432;46.924;7.114;2023-01-01T16:50:35;8.60;;;4.10;;
22531;SDS011;11432;46.924;7.114;2023-01-01T16:53:01;9.40;;;4.32;;
22531;SDS011;11432;46.924;7.114;2023-01-01T16:55:26;7.72;;;4.03;;
22531;SDS011;11432;46.924;7.114;2023-01-01T16:57:52;9.88;;;4.45;;
22531;SDS011;11432;46.924;7.114;2023-01-01T17:00:17;7.35;;;3.70;;
22531;SDS011;11432;46.924;7.114;2023-01-01T17:02:44;7.32;;;3.72;;
22531;SDS011;11432;46.924;7.114;2023-01-01T17:05:12;7.75;;;3.85;;
22531;SDS011;11432;46.924;7.114;2023-01-01T17:07:37;6.80;;;3.63;;
22531;SDS011;11432;46.924;7.114;2023-01-01T17:10:03;4.97;;;3.00;;
22531;SDS011;11432;46.924;7.114;2023-01-01T17:12:29;8.48;;;3.38;;
22531;SDS011;11432;46.924;7.114;2023-01-01T17:14:55;6.82;;;3.08;;
22531;SDS011;11432;46.924;7.114;2023-01-01T17:17:21;6.70;;;3.55;;
22531;SDS011;11432;46.924;7.114;2023-01-01T17:19:46;7.57;;;3.13;;
22531;SDS011;11432;46.924;7.114;2023-01-01T17:22:14;6.40;;;3.25;;
22531;SDS011;11432;46.924;7.114;2023-01-01T17:24:40;5.32;;;2.85;;
22531;SDS011;11432;46.924;7.114;2023-01-01T17:27:05;5.60;;;2.50;;
22531;SDS011;11432;46.924;7.114;2023-01-01T17:29:31;8.38;;;2.75;;
22531;SDS011;11432;46.924;7.114;2023-01-01T17:31:57;5.63;;;2.35;;
22531;SDS011;11432;46.924;7.114;2023-01-01T17:34:22;5.53;;;2.97;;